createdAt,value
2022-08-25T00:02:06.553Z,19.23
2022-08-25T00:04:38.139Z,19.27
2022-08-25T00:07:07.493Z,19.36
2022-08-25T00:09:35.506Z,19.37
2022-08-25T00:12:04.702Z,19.36
2022-08-25T00:14:37.211Z,19.34
2022-08-25T00:17:07.015Z,19.23
2022-08-25T00:19:38.553Z,19.17
2022-08-25T00:22:07.905Z,19.27
2022-08-25T00:24:35.488Z,19.26
2022-08-25T00:27:02.813Z,19.25
2022-08-25T00:29:32.377Z,19.22
2022-08-25T00:32:01.014Z,19.21
2022-08-25T00:34:35.080Z,19.13
2022-08-25T00:37:07.246Z,19.12
2022-08-25T00:39:34.997Z,19.14
2022-08-25T00:42:06.198Z,19.14
2022-08-25T00:44:40.054Z,19.15
2022-08-25T00:47:09.851Z,19.11
2022-08-25T00:49:49.404Z,19.09
2022-08-25T00:52:38.463Z,19.18
2022-08-25T00:55:21.715Z,19.01
2022-08-25T00:58:19.714Z,19.02
2022-08-25T01:00:52.975Z,18.99
2022-08-25T01:03:23.821Z,18.93
2022-08-25T01:05:55.262Z,19.00
2022-08-25T01:08:28.958Z,18.94
2022-08-25T01:10:59.406Z,18.85
2022-08-25T01:13:47.488Z,18.80
2022-08-25T01:16:16.713Z,18.76
2022-08-25T01:18:53.071Z,18.98
2022-08-25T01:21:23.329Z,18.81
2022-08-25T01:23:55.549Z,18.84
2022-08-25T01:26:31.061Z,18.80
2022-08-25T01:29:21.004Z,18.88
2022-08-25T01:32:08.891Z,18.91
2022-08-25T01:34:42.308Z,18.85
2022-08-25T01:37:14.548Z,18.80
2022-08-25T01:39:43.522Z,18.82
2022-08-25T01:42:54.027Z,18.82
2022-08-25T01:45:21.645Z,18.84
2022-08-25T01:47:49.535Z,18.85
2022-08-25T01:50:16.786Z,18.82
2022-08-25T01:52:59.914Z,18.79
2022-08-25T01:55:27.239Z,18.74
2022-08-25T01:57:54.370Z,18.76
2022-08-25T02:00:22.881Z,18.82
2022-08-25T02:02:52.259Z,18.73
2022-08-25T02:05:23.809Z,18.64
2022-08-25T02:07:51.045Z,18.66
2022-08-25T02:10:18.771Z,18.72
2022-08-25T02:12:45.962Z,18.83
2022-08-25T02:15:14.163Z,18.70
2022-08-25T02:17:41.156Z,18.69
2022-08-25T02:20:09.692Z,18.76
2022-08-25T02:22:36.917Z,18.73
2022-08-25T02:25:06.299Z,18.67
2022-08-25T02:27:33.716Z,18.73
2022-08-25T02:30:00.815Z,18.70
2022-08-25T02:32:27.986Z,18.65
2022-08-25T02:34:55.114Z,18.59
2022-08-25T02:37:22.235Z,18.59
2022-08-25T02:39:50.197Z,18.58
2022-08-25T02:42:17.253Z,18.57
2022-08-25T02:44:44.221Z,18.52
2022-08-25T02:47:11.230Z,18.56
2022-08-25T02:49:38.274Z,18.55
2022-08-25T02:52:05.546Z,18.51
2022-08-25T02:54:32.522Z,18.49
2022-08-25T02:56:59.881Z,18.40
2022-08-25T02:59:27.353Z,18.42
2022-08-25T03:01:54.613Z,18.41
2022-08-25T03:04:21.872Z,18.35
2022-08-25T03:06:49.264Z,18.30
2022-08-25T03:09:16.947Z,18.34
2022-08-25T03:11:44.071Z,18.35
2022-08-25T03:14:11.430Z,18.27
2022-08-25T03:16:38.815Z,18.31
2022-08-25T03:19:06.403Z,18.20
2022-08-25T03:21:33.995Z,18.26
2022-08-25T03:24:01.331Z,18.17
2022-08-25T03:26:50.826Z,18.22
2022-08-25T03:29:18.678Z,18.17
2022-08-25T03:31:48.967Z,18.22
2022-08-25T03:34:18.991Z,18.19
2022-08-25T03:36:52.502Z,18.23
2022-08-25T03:39:23.376Z,18.29
2022-08-25T03:41:51.716Z,18.29
2022-08-25T03:44:23.930Z,18.14
2022-08-25T03:46:53.134Z,18.15
2022-08-25T03:49:24.214Z,18.25
2022-08-25T03:51:54.977Z,18.23
2022-08-25T03:54:25.949Z,18.09
2022-08-25T03:56:53.995Z,18.09
2022-08-25T03:59:21.583Z,18.19
2022-08-25T04:01:54.549Z,18.22
2022-08-25T04:04:23.017Z,18.22
2022-08-25T04:06:50.278Z,18.24
2022-08-25T04:09:17.256Z,18.24
2022-08-25T04:11:44.489Z,18.19
2022-08-25T04:14:15.921Z,18.15
2022-08-25T04:16:47.781Z,18.05
2022-08-25T04:19:15.098Z,18.01
2022-08-25T04:21:42.498Z,18.11
2022-08-25T04:24:12.825Z,18.14
2022-08-25T04:26:49.130Z,18.13
2022-08-25T04:29:23.760Z,18.09
2022-08-25T04:31:53.439Z,18.00
2022-08-25T04:34:30.130Z,18.11
2022-08-25T04:37:02.821Z,18.22
2022-08-25T04:39:31.192Z,18.14
2022-08-25T04:42:00.441Z,18.21
2022-08-25T04:44:28.500Z,18.29
2022-08-25T04:46:55.504Z,18.32
2022-08-25T04:49:24.050Z,18.30
2022-08-25T04:51:51.346Z,18.30
2022-08-25T04:54:21.941Z,18.37
2022-08-25T04:56:54.671Z,18.47
2022-08-25T04:59:30.152Z,18.40
2022-08-25T05:02:03.540Z,18.47
2022-08-25T05:04:33.393Z,18.51
2022-08-25T05:07:01.059Z,18.36
2022-08-25T05:09:28.526Z,18.43
2022-08-25T05:11:59.860Z,18.38
2022-08-25T05:14:26.937Z,18.61
2022-08-25T05:16:55.714Z,18.49
2022-08-25T05:19:24.426Z,18.72
2022-08-25T05:21:52.126Z,18.60
2022-08-25T05:24:20.479Z,18.59
2022-08-25T05:26:47.869Z,18.52
2022-08-25T05:29:15.643Z,18.69
2022-08-25T05:31:48.247Z,18.69
2022-08-25T05:34:18.744Z,18.69
2022-08-25T05:36:46.167Z,18.63
2022-08-25T05:39:13.482Z,18.60
2022-08-25T05:41:40.746Z,18.64
2022-08-25T05:44:08.456Z,18.63
2022-08-25T05:46:36.554Z,18.74
2022-08-25T05:49:03.923Z,18.75
2022-08-25T05:51:31.079Z,18.68
2022-08-25T05:54:00.663Z,18.76
2022-08-25T05:56:27.651Z,18.86
2022-08-25T05:58:54.641Z,18.91
2022-08-25T06:01:46.176Z,18.90
2022-08-25T06:04:18.057Z,18.96
2022-08-25T06:06:45.252Z,19.01
2022-08-25T06:09:12.534Z,18.89
2022-08-25T06:11:41.429Z,18.80
2022-08-25T06:14:10.465Z,18.93
2022-08-25T06:16:39.133Z,18.96
2022-08-25T06:19:09.639Z,19.17
2022-08-25T06:21:41.363Z,19.05
2022-08-25T06:24:15.266Z,19.18
2022-08-25T06:26:44.005Z,19.07
2022-08-25T06:29:11.177Z,19.18
2022-08-25T06:31:38.338Z,19.29
2022-08-25T06:34:06.197Z,19.15
2022-08-25T06:36:34.600Z,19.28
2022-08-25T06:39:01.698Z,19.31
2022-08-25T06:41:36.797Z,19.31
2022-08-25T06:44:05.910Z,19.31
2022-08-25T06:46:35.937Z,19.49
2022-08-25T06:49:06.948Z,19.55
2022-08-25T06:51:35.969Z,19.38
2022-08-25T06:54:06.972Z,19.57
2022-08-25T06:56:34.678Z,19.64
2022-08-25T06:59:04.618Z,19.70
2022-08-25T07:01:32.344Z,19.65
2022-08-25T07:04:02.984Z,19.62
2022-08-25T07:06:35.405Z,19.76
2022-08-25T07:09:08.536Z,19.79
2022-08-25T07:11:35.897Z,19.94
2022-08-25T07:14:06.129Z,19.96
2022-08-25T07:16:33.732Z,20.08
2022-08-25T07:19:03.597Z,20.23
2022-08-25T07:21:35.732Z,20.31
2022-08-25T07:24:11.088Z,20.36
2022-08-25T07:26:42.392Z,20.49
2022-08-25T07:29:32.854Z,20.33
2022-08-25T07:32:02.026Z,20.37
2022-08-25T07:34:52.274Z,20.42
2022-08-25T07:40:15.293Z,20.47
2022-08-25T07:42:42.762Z,20.35
2022-08-25T07:45:12.914Z,20.39
2022-08-25T07:47:40.581Z,20.26
2022-08-25T07:50:12.277Z,20.32
2022-08-25T07:52:41.416Z,20.34
2022-08-25T07:55:11.042Z,20.39
2022-08-25T07:57:41.911Z,20.38
2022-08-25T08:00:13.602Z,20.51
2022-08-25T08:02:42.139Z,20.55
2022-08-25T08:05:12.265Z,20.76
2022-08-25T08:07:43.464Z,20.92
2022-08-25T08:10:48.198Z,20.99
2022-08-25T08:13:02.524Z,20.98
2022-08-25T08:15:30.317Z,20.94
2022-08-25T08:17:59.693Z,21.15
2022-08-25T08:20:28.726Z,21.15
2022-08-25T08:22:55.896Z,21.01
2022-08-25T08:25:27.497Z,21.08
2022-08-25T08:27:56.702Z,21.28
2022-08-25T08:30:26.165Z,21.26
2022-08-25T08:33:11.852Z,21.34
2022-08-25T08:35:43.948Z,21.53
2022-08-25T08:38:17.375Z,21.34
2022-08-25T08:41:40.173Z,21.80
2022-08-25T08:44:50.368Z,21.90
2022-08-25T08:48:02.954Z,21.83
2022-08-25T08:50:57.361Z,22.10
2022-08-25T08:53:58.148Z,22.04
2022-08-25T08:56:47.957Z,21.99
2022-08-25T08:59:30.781Z,21.72
2022-08-25T09:02:01.030Z,22.06
2022-08-25T09:05:16.805Z,22.21
2022-08-25T09:07:57.852Z,22.42
2022-08-25T09:10:40.328Z,22.29
2022-08-25T09:14:05.290Z,22.38
2022-08-25T09:17:34.482Z,22.34
2022-08-25T09:20:47.028Z,22.27
2022-08-25T09:24:25.038Z,22.16
2022-08-25T09:27:47.118Z,22.15
2022-08-25T09:30:21.137Z,22.07
2022-08-25T09:33:02.081Z,22.19
2022-08-25T09:35:34.723Z,22.45
2022-08-25T09:38:10.118Z,23.09
2022-08-25T09:40:49.246Z,22.92
2022-08-25T09:43:43.613Z,22.96
2022-08-25T09:46:29.748Z,23.34
2022-08-25T09:49:13.707Z,23.30
2022-08-25T09:51:42.947Z,23.86
2022-08-25T09:54:12.965Z,24.01
2022-08-25T09:57:01.842Z,23.70
2022-08-25T09:59:36.579Z,23.92
2022-08-25T10:02:25.769Z,24.55
2022-08-25T10:04:53.469Z,24.48
2022-08-25T10:07:36.184Z,24.70
2022-08-25T10:10:35.133Z,25.08
2022-08-25T10:13:12.158Z,24.95
2022-08-25T10:15:39.702Z,24.57
2022-08-25T10:18:29.435Z,25.30
2022-08-25T10:21:14.923Z,24.89
2022-08-25T10:23:53.459Z,25.41
2022-08-25T10:27:14.830Z,25.53
2022-08-25T10:30:57.094Z,25.74
2022-08-25T10:34:08.901Z,25.55
2022-08-25T10:37:10.920Z,25.55
2022-08-25T10:39:45.744Z,25.61
2022-08-25T10:42:43.465Z,25.65
2022-08-25T10:45:43.087Z,25.67
2022-08-25T10:49:19.578Z,25.60
2022-08-25T10:52:14.788Z,25.76
2022-08-25T10:55:01.782Z,25.23
2022-08-25T10:57:53.152Z,25.17
2022-08-25T11:00:31.752Z,25.57
2022-08-25T11:03:44.503Z,25.51
2022-08-25T11:06:54.829Z,25.42
2022-08-25T11:09:36.454Z,25.62
2022-08-25T11:12:15.646Z,25.99
2022-08-25T11:14:57.156Z,26.45
2022-08-25T11:17:42.903Z,26.73
2022-08-25T11:20:27.116Z,27.08
2022-08-25T11:23:32.370Z,27.53
2022-08-25T11:26:17.316Z,27.23
2022-08-25T11:28:52.543Z,27.64
2022-08-25T11:31:23.041Z,26.94
2022-08-25T11:33:51.685Z,27.03
2022-08-25T11:36:37.578Z,26.65
2022-08-25T11:39:34.661Z,27.11
2022-08-25T11:42:42.882Z,27.76
2022-08-25T11:45:54.504Z,28.30
2022-08-25T11:49:02.104Z,27.12
2022-08-25T11:51:49.094Z,27.44
2022-08-25T11:54:44.060Z,26.77
2022-08-25T11:57:27.763Z,26.79
2022-08-25T11:59:57.846Z,26.82
2022-08-25T12:02:37.526Z,27.07
2022-08-25T12:05:36.774Z,27.17
2022-08-25T12:08:25.418Z,27.26
2022-08-25T12:11:10.663Z,27.85
2022-08-25T12:13:49.113Z,27.95
2022-08-25T12:16:36.243Z,28.53
2022-08-25T12:19:35.621Z,28.45
2022-08-25T12:22:03.955Z,28.79
2022-08-25T12:24:47.931Z,28.90
2022-08-25T12:27:58.198Z,27.75
2022-08-25T12:30:53.734Z,28.06
2022-08-25T12:34:04.272Z,28.95
2022-08-25T12:36:33.992Z,28.82
2022-08-25T12:39:24.597Z,29.09
2022-08-25T12:42:04.192Z,28.64
2022-08-25T12:44:39.599Z,28.72
2022-08-25T12:47:19.523Z,29.21
2022-08-25T12:49:51.460Z,28.88
2022-08-25T12:52:28.134Z,28.82
2022-08-25T12:55:06.148Z,28.58
2022-08-25T12:57:57.594Z,28.41
2022-08-25T13:00:35.207Z,28.61
2022-08-25T13:03:26.099Z,28.88
2022-08-25T13:06:02.668Z,29.08
2022-08-25T13:09:18.878Z,29.04
2022-08-25T13:12:40.428Z,29.62
2022-08-25T13:15:24.870Z,29.31
2022-08-25T13:17:59.004Z,30.07
2022-08-25T13:20:29.244Z,29.94
2022-08-25T13:23:00.794Z,29.48
2022-08-25T13:25:32.449Z,29.23
2022-08-25T13:28:06.344Z,29.78
2022-08-25T13:30:37.074Z,29.79
2022-08-25T13:33:26.398Z,29.38
2022-08-25T13:36:16.574Z,28.89
2022-08-25T13:38:46.667Z,29.73
2022-08-25T13:41:29.228Z,28.73
2022-08-25T13:44:00.780Z,29.23
2022-08-25T13:46:30.125Z,28.17
2022-08-25T13:49:08.797Z,27.93
2022-08-25T13:51:39.091Z,28.01
2022-08-25T13:54:23.823Z,29.12
2022-08-25T13:56:52.443Z,29.25
2022-08-25T13:59:31.086Z,29.42
2022-08-25T14:01:59.834Z,29.58
2022-08-25T14:04:44.091Z,29.97
2022-08-25T14:07:22.318Z,29.52
2022-08-25T14:10:07.210Z,29.72
2022-08-25T14:12:47.663Z,29.92
2022-08-25T14:15:17.491Z,29.10
2022-08-25T14:18:06.837Z,28.29
2022-08-25T14:20:37.142Z,28.17
2022-08-25T14:23:16.310Z,28.68
2022-08-25T14:25:48.744Z,28.62
2022-08-25T14:28:25.458Z,28.35
2022-08-25T14:31:35.581Z,28.86
2022-08-25T14:34:16.329Z,29.26
2022-08-25T14:36:44.903Z,29.42
2022-08-25T14:39:12.650Z,28.37
2022-08-25T14:41:45.296Z,28.10
2022-08-25T14:44:18.493Z,29.02
2022-08-25T14:46:54.095Z,29.04
2022-08-25T14:49:33.625Z,29.29
2022-08-25T14:52:30.353Z,29.43
2022-08-25T14:54:57.613Z,29.26
2022-08-25T14:57:25.827Z,29.18
2022-08-25T14:59:53.586Z,29.62
2022-08-25T15:02:29.333Z,29.74
2022-08-25T15:05:02.179Z,30.14
2022-08-25T15:07:50.152Z,29.37
2022-08-25T15:10:17.915Z,28.97
2022-08-25T15:12:47.890Z,28.68
2022-08-25T15:15:15.361Z,28.68
2022-08-25T15:17:44.767Z,28.29
2022-08-25T15:20:12.534Z,28.35
2022-08-25T15:22:41.702Z,28.49
2022-08-25T15:25:08.947Z,28.34
2022-08-25T15:27:36.768Z,28.44
2022-08-25T15:30:05.498Z,27.99
2022-08-25T15:32:32.554Z,28.38
2022-08-25T15:35:00.658Z,28.45
2022-08-25T15:37:28.576Z,28.78
2022-08-25T15:39:55.992Z,28.24
2022-08-25T15:42:23.091Z,28.46
2022-08-25T15:44:53.274Z,28.20
2022-08-25T15:47:24.022Z,28.69
2022-08-25T15:50:01.564Z,28.28
2022-08-25T15:52:44.554Z,28.12
2022-08-25T15:55:16.376Z,28.31
2022-08-25T15:57:43.806Z,28.62
2022-08-25T16:00:13.729Z,28.53
2022-08-25T16:02:45.497Z,28.52
2022-08-25T16:05:13.672Z,28.08
2022-08-25T16:07:45.844Z,28.44
2022-08-25T16:10:13.599Z,28.42
2022-08-25T16:12:42.702Z,28.28
2022-08-25T16:15:12.233Z,28.31
2022-08-25T16:17:40.666Z,28.16
2022-08-25T16:20:13.633Z,28.19
2022-08-25T16:22:41.512Z,28.15
2022-08-25T16:25:10.638Z,28.31
2022-08-25T16:27:38.831Z,28.37
2022-08-25T16:30:17.520Z,28.01
2022-08-25T16:32:46.609Z,27.97
2022-08-25T16:35:14.225Z,28.18
2022-08-25T16:37:41.467Z,28.01
2022-08-25T16:40:14.715Z,28.01
2022-08-25T16:42:42.184Z,28.02
2022-08-25T16:45:10.072Z,28.29
2022-08-25T16:47:42.559Z,27.90
2022-08-25T16:50:11.061Z,27.75
2022-08-25T16:52:58.177Z,27.43
2022-08-25T16:55:28.479Z,27.57
2022-08-25T16:58:06.938Z,27.32
2022-08-25T17:00:38.740Z,27.47
2022-08-25T17:03:06.975Z,26.96
2022-08-25T17:05:42.185Z,27.33
2022-08-25T17:08:27.887Z,27.08
2022-08-25T17:11:17.665Z,27.30
2022-08-25T17:13:53.127Z,27.20
2022-08-25T17:16:27.739Z,26.95
2022-08-25T17:18:55.432Z,26.91
2022-08-25T17:21:26.751Z,26.73
2022-08-25T17:23:57.296Z,26.67
2022-08-25T17:26:28.106Z,26.79
2022-08-25T17:29:01.038Z,26.53
2022-08-25T17:31:29.982Z,26.42
2022-08-25T17:33:58.453Z,26.59
2022-08-25T17:36:27.153Z,26.58
2022-08-25T17:38:56.921Z,26.55
2022-08-25T17:41:24.992Z,26.39
2022-08-25T17:43:52.113Z,26.40
2022-08-25T17:46:19.199Z,26.33
2022-08-25T17:48:46.205Z,26.12
2022-08-25T17:51:13.356Z,26.10
2022-08-25T17:53:43.781Z,26.07
2022-08-25T17:56:17.327Z,25.88
2022-08-25T17:58:47.138Z,25.91
2022-08-25T18:01:22.592Z,25.82
2022-08-25T18:03:50.636Z,25.82
2022-08-25T18:06:18.960Z,25.91
2022-08-25T18:08:50.254Z,25.68
2022-08-25T18:11:23.557Z,25.63
2022-08-25T18:13:53.846Z,25.57
2022-08-25T18:16:22.992Z,25.57
2022-08-25T18:18:51.456Z,25.31
2022-08-25T18:21:22.555Z,25.26
2022-08-25T18:23:49.974Z,25.30
2022-08-25T18:26:21.958Z,25.23
2022-08-25T18:28:52.567Z,25.17
2022-08-25T18:31:19.824Z,25.01
2022-08-25T18:33:47.674Z,24.87
2022-08-25T18:36:20.436Z,24.83
2022-08-25T18:39:07.308Z,24.59
2022-08-25T18:41:41.119Z,24.57
2022-08-25T18:44:10.561Z,24.61
2022-08-25T18:46:39.323Z,24.55
2022-08-25T18:49:06.390Z,24.50
2022-08-25T18:51:33.487Z,24.28
2022-08-25T18:54:01.437Z,24.26
2022-08-25T18:56:29.136Z,24.23
2022-08-25T18:58:57.137Z,24.25
2022-08-25T19:01:24.616Z,24.18
2022-08-25T19:03:51.826Z,24.16
2022-08-25T19:06:20.194Z,24.24
2022-08-25T19:08:48.458Z,24.16
2022-08-25T19:11:17.511Z,23.96
2022-08-25T19:13:50.888Z,24.04
2022-08-25T19:16:41.396Z,24.00
2022-08-25T19:19:13.056Z,23.85
2022-08-25T19:21:43.745Z,23.73
2022-08-25T19:24:14.301Z,23.60
2022-08-25T19:26:43.445Z,23.53
2022-08-25T19:29:17.128Z,23.52
2022-08-25T19:31:47.534Z,23.44
2022-08-25T19:34:30.355Z,23.50
2022-08-25T19:37:02.419Z,23.50
2022-08-25T19:39:34.860Z,23.47
2022-08-25T19:42:03.177Z,23.46
2022-08-25T19:44:30.659Z,23.51
2022-08-25T19:46:58.037Z,23.31
2022-08-25T19:49:34.186Z,23.29
2022-08-25T19:52:10.384Z,23.28
2022-08-25T19:54:45.757Z,23.29
2022-08-25T19:57:27.704Z,23.25
2022-08-25T19:59:56.221Z,23.15
2022-08-25T20:02:29.506Z,23.21
2022-08-25T20:05:01.935Z,23.17
2022-08-25T20:07:31.841Z,23.02
2022-08-25T20:10:01.267Z,23.12
2022-08-25T20:12:29.356Z,22.98
2022-08-25T20:14:57.794Z,23.01
2022-08-25T20:17:26.071Z,22.91
2022-08-25T20:20:00.074Z,22.76
2022-08-25T20:22:32.117Z,22.72
2022-08-25T20:25:13.422Z,22.45
2022-08-25T20:27:53.813Z,22.47
2022-08-25T20:30:29.596Z,22.70
2022-08-25T20:32:58.119Z,22.48
2022-08-25T20:35:27.336Z,22.44
2022-08-25T20:37:58.973Z,22.41
2022-08-25T20:40:30.399Z,22.59
2022-08-25T20:43:03.236Z,22.57
2022-08-25T20:45:30.616Z,22.60
2022-08-25T20:47:57.691Z,22.49
2022-08-25T20:50:25.555Z,22.42
2022-08-25T20:52:58.295Z,22.50
2022-08-25T20:55:27.700Z,22.43
2022-08-25T20:57:55.102Z,22.46
2022-08-25T21:00:23.587Z,22.46
2022-08-25T21:02:52.849Z,22.41
2022-08-25T21:05:20.068Z,22.37
2022-08-25T21:07:47.085Z,22.37
2022-08-25T21:10:16.064Z,22.30
2022-08-25T21:12:44.949Z,22.25
2022-08-25T21:15:13.650Z,22.19
2022-08-25T21:17:50.522Z,22.24
2022-08-25T21:20:18.342Z,22.16
2022-08-25T21:22:45.427Z,22.12
2022-08-25T21:25:13.596Z,22.19
2022-08-25T21:27:40.613Z,22.06
2022-08-25T21:30:12.002Z,22.11
2022-08-25T21:32:39.011Z,22.12
2022-08-25T21:35:07.909Z,22.08
2022-08-25T21:37:35.153Z,22.05
2022-08-25T21:40:02.357Z,21.99
2022-08-25T21:42:32.432Z,21.80
2022-08-25T21:44:59.392Z,21.88
2022-08-25T21:47:26.401Z,21.93
2022-08-25T21:49:53.935Z,21.83
2022-08-25T21:52:21.135Z,21.79
2022-08-25T21:54:48.180Z,21.74
2022-08-25T21:57:17.869Z,21.82
2022-08-25T21:59:46.379Z,21.71
2022-08-25T22:02:14.050Z,21.71
2022-08-25T22:04:42.168Z,21.68
2022-08-25T22:07:10.952Z,21.69
2022-08-25T22:09:39.126Z,21.76
2022-08-25T22:12:06.939Z,21.73
2022-08-25T22:14:36.103Z,21.60
2022-08-25T22:17:03.586Z,21.67
2022-08-25T22:19:30.822Z,21.60
2022-08-25T22:22:00.810Z,21.63
2022-08-25T22:24:28.125Z,21.57
2022-08-25T22:26:56.392Z,21.52
2022-08-25T22:29:25.806Z,21.45
2022-08-25T22:32:00.980Z,21.47
2022-08-25T22:34:34.193Z,21.57
2022-08-25T22:37:03.794Z,21.67
2022-08-25T22:39:34.443Z,21.56
2022-08-25T22:42:03.616Z,21.55
2022-08-25T22:44:31.050Z,21.61
2022-08-25T22:46:58.211Z,21.54
2022-08-25T22:49:29.507Z,21.53
2022-08-25T22:51:57.184Z,21.59
2022-08-25T22:54:25.526Z,21.53
2022-08-25T22:56:53.338Z,21.56
2022-08-25T22:59:22.446Z,21.29
2022-08-25T23:01:52.325Z,21.36
2022-08-25T23:04:19.550Z,21.30
2022-08-25T23:06:47.422Z,21.25
2022-08-25T23:09:14.859Z,21.32
2022-08-25T23:11:42.514Z,21.26
2022-08-25T23:14:11.443Z,21.26
2022-08-25T23:16:41.974Z,21.25
2022-08-25T23:19:14.023Z,21.32
2022-08-25T23:22:01.824Z,21.29
2022-08-25T23:24:31.008Z,21.30
2022-08-25T23:27:04.286Z,21.22
2022-08-25T23:29:35.840Z,21.27
2022-08-25T23:32:04.531Z,21.28
2022-08-25T23:34:31.550Z,21.13
2022-08-25T23:37:01.250Z,21.01
2022-08-25T23:39:28.735Z,21.04
2022-08-25T23:41:58.018Z,21.01
2022-08-25T23:44:25.778Z,21.09
2022-08-25T23:46:53.744Z,20.97
2022-08-25T23:49:23.678Z,20.98
2022-08-25T23:51:52.992Z,21.03
2022-08-25T23:54:21.530Z,20.97
2022-08-25T23:56:52.391Z,21.00
2022-08-25T23:59:24.489Z,21.06
